createdAt,value
2019-05-25T00:00:21.301Z,100046.89
2019-05-25T00:02:53.880Z,100053.55
2019-05-25T00:05:26.001Z,100047.81
2019-05-25T00:07:58.220Z,100046.95
2019-05-25T00:10:30.306Z,100046.73
2019-05-25T00:13:02.461Z,100052.81
2019-05-25T00:15:34.942Z,100054.41
2019-05-25T00:18:07.403Z,100058.27
2019-05-25T00:20:40.632Z,100065.11
2019-05-25T00:23:12.759Z,100064.64
2019-05-25T00:25:44.908Z,100060.63
2019-05-25T00:28:17.315Z,100060.44
2019-05-25T00:30:49.873Z,100057.33
2019-05-25T00:33:22.559Z,100057.17
2019-05-25T00:35:54.937Z,100045.53
2019-05-25T00:38:27.224Z,100041.77
2019-05-25T00:40:59.497Z,100039.09
2019-05-25T00:43:31.819Z,100036.50
2019-05-25T00:46:04.078Z,100040.75
2019-05-25T00:48:37.379Z,100040.17
2019-05-25T00:51:09.538Z,100035.84
2019-05-25T00:53:42.098Z,100036.00
2019-05-25T00:56:14.435Z,100037.50
2019-05-25T00:58:46.629Z,100032.34
2019-05-25T01:01:18.806Z,100031.05
2019-05-25T01:03:51.079Z,100026.36
2019-05-25T01:06:23.229Z,100022.52
2019-05-25T01:08:55.601Z,100015.00
2019-05-25T01:11:29.424Z,100018.78
2019-05-25T01:14:01.719Z,100019.62
2019-05-25T01:16:33.818Z,100016.08
2019-05-25T01:19:06.086Z,100020.94
2019-05-25T01:21:38.377Z,100025.05
2019-05-25T01:24:10.819Z,100025.03
2019-05-25T01:26:43.239Z,100026.89
2019-05-25T01:29:17.835Z,100021.88
2019-05-25T01:31:50.121Z,100022.20
2019-05-25T01:34:22.457Z,100016.77
2019-05-25T01:36:55.896Z,100015.67
2019-05-25T01:39:28.099Z,100015.16
2019-05-25T01:42:01.468Z,100017.02
2019-05-25T01:44:33.827Z,100014.66
2019-05-25T01:47:06.329Z,100016.25
2019-05-25T01:49:38.619Z,100022.34
2019-05-25T01:52:10.879Z,100022.28
2019-05-25T01:54:58.616Z,100028.14
2019-05-25T01:57:17.230Z,100026.16
2019-05-25T01:59:49.478Z,100025.88
2019-05-25T02:02:21.783Z,100023.87
2019-05-25T02:04:54.212Z,100026.13
2019-05-25T02:07:26.501Z,100024.23
2019-05-25T02:09:58.872Z,100024.58
2019-05-25T02:12:31.107Z,100032.66
2019-05-25T02:15:04.079Z,100027.31
2019-05-25T02:17:36.317Z,100031.02
2019-05-25T02:20:09.617Z,100039.35
2019-05-25T02:22:42.219Z,100039.45
2019-05-25T02:25:18.224Z,100029.24
2019-05-25T02:27:48.829Z,100029.64
2019-05-25T02:30:24.007Z,100030.23
2019-05-25T02:32:56.355Z,100033.01
2019-05-25T02:35:30.794Z,100033.94
2019-05-25T02:38:03.128Z,100035.00
2019-05-25T02:40:36.429Z,100038.11
2019-05-25T02:43:08.497Z,100038.67
2019-05-25T02:45:41.500Z,100035.84
2019-05-25T02:48:14.839Z,100041.88
2019-05-25T02:50:47.559Z,100043.05
2019-05-25T02:53:19.791Z,100045.86
2019-05-25T02:55:52.131Z,100040.78
2019-05-25T02:58:24.545Z,100041.38
2019-05-25T03:00:56.892Z,100045.52
2019-05-25T03:03:30.337Z,100047.94
2019-05-25T03:06:03.426Z,100047.53
2019-05-25T03:08:37.691Z,100049.80
2019-05-25T03:11:09.933Z,100050.87
2019-05-25T03:13:42.924Z,100050.30
2019-05-25T03:16:15.180Z,100047.19
2019-05-25T03:18:47.432Z,100051.08
2019-05-25T03:21:19.573Z,100046.39
2019-05-25T03:23:51.812Z,100056.50
2019-05-25T03:26:24.203Z,100052.98
2019-05-25T03:28:56.359Z,100052.06
2019-05-25T03:31:28.444Z,100053.16
2019-05-25T03:34:01.107Z,100049.89
2019-05-25T03:36:33.528Z,100051.89
2019-05-25T03:39:08.019Z,100056.14
2019-05-25T03:41:40.075Z,100055.53
2019-05-25T03:44:14.672Z,100057.87
2019-05-25T03:46:46.927Z,100061.75
2019-05-25T03:49:19.201Z,100059.62
2019-05-25T03:51:52.426Z,100058.21
2019-05-25T03:54:24.539Z,100055.19
2019-05-25T03:56:57.310Z,100058.23
2019-05-25T03:59:29.491Z,100048.44
2019-05-25T04:02:01.822Z,100048.23
2019-05-25T04:04:34.025Z,100045.02
2019-05-25T04:07:06.337Z,100038.55
2019-05-25T04:09:38.644Z,100043.89
2019-05-25T04:12:10.792Z,100031.41
2019-05-25T04:14:43.017Z,100040.86
2019-05-25T04:17:15.279Z,100039.23
2019-05-25T04:19:47.731Z,100044.55
2019-05-25T04:22:19.808Z,100041.36
2019-05-25T04:24:52.125Z,100040.46
2019-05-25T04:27:25.390Z,100045.84
2019-05-25T04:29:57.627Z,100045.03
2019-05-25T04:32:29.960Z,100054.14
2019-05-25T04:35:02.103Z,100056.91
2019-05-25T04:37:34.633Z,100056.41
2019-05-25T04:40:07.695Z,100056.24
2019-05-25T04:42:39.925Z,100064.02
2019-05-25T04:45:12.321Z,100057.32
2019-05-25T04:47:44.680Z,100060.97
2019-05-25T04:50:17.206Z,100059.86
2019-05-25T04:52:49.535Z,100059.48
2019-05-25T04:55:21.930Z,100065.90
2019-05-25T04:57:54.788Z,100072.75
2019-05-25T05:00:26.902Z,100067.73
2019-05-25T05:02:59.201Z,100062.72
2019-05-25T05:05:34.398Z,100066.23
2019-05-25T05:08:06.663Z,100069.80
2019-05-25T05:10:38.852Z,100072.20
2019-05-25T05:13:11.187Z,100071.80
2019-05-25T05:15:43.474Z,100070.10
2019-05-25T05:18:15.812Z,100065.84
2019-05-25T05:20:48.147Z,100070.43
2019-05-25T05:23:20.440Z,100078.42
2019-05-25T05:25:52.665Z,100077.75
2019-05-25T05:28:25.066Z,100078.89
2019-05-25T05:30:57.329Z,100079.23
2019-05-25T05:33:29.707Z,100072.11
2019-05-25T05:36:03.713Z,100076.17
2019-05-25T05:38:36.799Z,100076.91
2019-05-25T05:41:09.211Z,100076.78
2019-05-25T05:43:43.834Z,100078.98
2019-05-25T05:46:17.981Z,100079.63
2019-05-25T05:48:52.496Z,100075.80
2019-05-25T05:51:27.645Z,100074.95
2019-05-25T05:54:03.079Z,100077.81
2019-05-25T05:56:35.291Z,100073.89
2019-05-25T05:59:07.664Z,100076.55
2019-05-25T06:01:39.984Z,100083.55
2019-05-25T06:04:12.063Z,100088.69
2019-05-25T06:06:44.146Z,100092.24
2019-05-25T06:09:16.409Z,100090.25
2019-05-25T06:11:48.554Z,100086.59
2019-05-25T06:14:20.765Z,100087.56
2019-05-25T06:16:53.119Z,100086.52
2019-05-25T06:19:25.420Z,100085.13
2019-05-25T06:21:57.684Z,100079.04
2019-05-25T06:24:29.909Z,100074.85
2019-05-25T06:27:02.253Z,100070.57
2019-05-25T06:29:34.570Z,100071.50
2019-05-25T06:32:06.771Z,100068.87
2019-05-25T06:34:39.002Z,100066.64
2019-05-25T06:37:11.233Z,100058.05
2019-05-25T06:39:43.401Z,100053.93
2019-05-25T06:42:15.621Z,100056.17
2019-05-25T06:44:47.972Z,100047.65
2019-05-25T06:47:20.206Z,100046.39
2019-05-25T06:49:54.163Z,100045.23
2019-05-25T06:52:26.516Z,100044.91
2019-05-25T06:54:58.729Z,100043.92
2019-05-25T06:57:42.646Z,100052.12
2019-05-25T07:00:07.548Z,100055.39
2019-05-25T07:02:39.825Z,100051.98
2019-05-25T07:05:12.714Z,100044.73
2019-05-25T07:07:45.034Z,100049.80
2019-05-25T07:10:17.751Z,100046.78
2019-05-25T07:12:50.090Z,100044.91
2019-05-25T07:15:22.295Z,100040.87
2019-05-25T07:17:54.746Z,100026.13
2019-05-25T07:20:28.268Z,100022.44
2019-05-25T07:23:00.499Z,100028.53
2019-05-25T07:25:32.857Z,100027.87
2019-05-25T07:28:05.345Z,100026.70
2019-05-25T07:30:37.547Z,100029.11
2019-05-25T07:33:09.609Z,100027.92
2019-05-25T07:35:41.834Z,100026.42
2019-05-25T07:38:14.142Z,100022.17
2019-05-25T07:40:46.431Z,100027.20
2019-05-25T07:43:18.677Z,100028.98
2019-05-25T07:45:50.976Z,100024.94
2019-05-25T07:48:23.155Z,100024.72
2019-05-25T07:50:55.519Z,100026.75
2019-05-25T07:53:29.293Z,100027.45
2019-05-25T07:56:01.521Z,100031.49
2019-05-25T07:58:33.709Z,100032.83
2019-05-25T08:01:06.002Z,100030.83
2019-05-25T08:03:39.917Z,100038.58
2019-05-25T08:06:12.127Z,100035.38
2019-05-25T08:08:44.351Z,100034.00
2019-05-25T08:11:16.577Z,100042.08
2019-05-25T08:13:48.904Z,100035.48
2019-05-25T08:16:21.231Z,100032.00
2019-05-25T08:18:53.586Z,100041.53
2019-05-25T08:21:25.717Z,100033.49
2019-05-25T08:23:57.851Z,100020.83
2019-05-25T08:26:30.202Z,100016.35
2019-05-25T08:29:02.485Z,100010.56
2019-05-25T08:31:35.745Z,100002.96
2019-05-25T08:34:07.984Z,99998.34
2019-05-25T08:36:40.238Z,100000.84
2019-05-25T08:39:12.510Z,99993.41
2019-05-25T08:41:45.679Z,99991.11
2019-05-25T08:44:17.955Z,99988.55
2019-05-25T08:46:50.053Z,99987.90
2019-05-25T08:49:22.345Z,100005.88
2019-05-25T08:51:55.141Z,100009.12
2019-05-25T08:54:27.316Z,99996.95
2019-05-25T08:56:59.599Z,100000.89
2019-05-25T08:59:31.783Z,99995.13
2019-05-25T09:02:04.178Z,99993.28
2019-05-25T09:04:36.453Z,99976.22
2019-05-25T09:07:08.914Z,99981.58
2019-05-25T09:09:41.160Z,99977.59
2019-05-25T09:12:13.383Z,99973.21
2019-05-25T09:14:45.645Z,99971.61
2019-05-25T09:17:19.608Z,99976.28
2019-05-25T09:19:51.866Z,99975.89
2019-05-25T09:22:24.128Z,99976.77
2019-05-25T09:24:56.410Z,99965.25
2019-05-25T09:27:28.824Z,99971.13
2019-05-25T09:30:01.159Z,99975.96
2019-05-25T09:32:33.664Z,99963.97
2019-05-25T09:35:07.690Z,99954.22
2019-05-25T09:37:40.690Z,99954.66
2019-05-25T09:40:13.233Z,99952.48
2019-05-25T09:42:45.442Z,99953.77
2019-05-25T09:45:17.720Z,99946.19
2019-05-25T09:47:50.058Z,99944.12
2019-05-25T09:50:22.277Z,99947.22
2019-05-25T09:52:54.593Z,99932.66
2019-05-25T09:55:26.911Z,99936.95
2019-05-25T09:57:59.140Z,99944.51
2019-05-25T10:00:31.801Z,99943.28
2019-05-25T10:03:04.080Z,99942.19
2019-05-25T10:05:36.208Z,99937.53
2019-05-25T10:08:08.454Z,99939.39
2019-05-25T10:10:40.716Z,99928.69
2019-05-25T10:13:12.967Z,99923.50
2019-05-25T10:15:45.069Z,99918.47
2019-05-25T10:18:17.203Z,99922.38
2019-05-25T10:20:49.700Z,99923.72
2019-05-25T10:23:21.951Z,99925.41
2019-05-25T10:25:55.291Z,99930.97
2019-05-25T10:28:27.487Z,99954.50
2019-05-25T10:30:59.600Z,99992.60
2019-05-25T10:33:32.627Z,100000.48
2019-05-25T10:36:08.253Z,100021.56
2019-05-25T10:38:40.631Z,100026.55
2019-05-25T10:41:12.809Z,100028.98
2019-05-25T10:43:45.245Z,100039.62
2019-05-25T10:46:18.646Z,100029.99
2019-05-25T10:48:50.817Z,100028.75
2019-05-25T10:51:23.898Z,100024.16
2019-05-25T10:53:57.559Z,100021.45
2019-05-25T10:56:29.873Z,100008.75
2019-05-25T10:59:02.155Z,99996.69
2019-05-25T11:01:34.454Z,99993.84
2019-05-25T11:04:06.903Z,99991.33
2019-05-25T11:06:40.297Z,99980.07
2019-05-25T11:09:12.658Z,99967.44
2019-05-25T11:11:44.636Z,99964.77
2019-05-25T11:14:17.113Z,99972.41
2019-05-25T11:16:49.525Z,99980.14
2019-05-25T11:19:24.171Z,99980.80
2019-05-25T11:21:55.893Z,99976.80
2019-05-25T11:24:28.343Z,99976.97
2019-05-25T11:27:00.654Z,99976.48
2019-05-25T11:29:33.020Z,99981.45
2019-05-25T11:32:06.747Z,99972.05
2019-05-25T11:34:39.495Z,99972.30
2019-05-25T11:37:15.300Z,99981.34
2019-05-25T11:39:45.728Z,99987.14
2019-05-25T11:42:17.874Z,99997.38
2019-05-25T11:44:50.285Z,100011.03
2019-05-25T11:47:22.637Z,100011.95
2019-05-25T11:49:55.067Z,100013.37
2019-05-25T11:52:27.363Z,100009.34
2019-05-25T11:54:59.695Z,100012.69
2019-05-25T11:57:31.929Z,100002.07
2019-05-25T12:00:07.126Z,100000.51
2019-05-25T12:02:39.284Z,100007.47
2019-05-25T12:05:13.230Z,100008.73
2019-05-25T12:07:45.457Z,100007.09
2019-05-25T12:10:18.084Z,100003.73
2019-05-25T12:12:50.486Z,100001.90
2019-05-25T12:15:22.640Z,100000.02
2019-05-25T12:17:55.028Z,99991.47
2019-05-25T12:20:27.412Z,99989.79
2019-05-25T12:22:59.749Z,99988.53
2019-05-25T12:25:32.946Z,99990.38
2019-05-25T12:28:05.264Z,99989.16
2019-05-25T12:30:40.848Z,99985.17
2019-05-25T12:33:11.411Z,99987.02
2019-05-25T12:35:45.285Z,99994.90
2019-05-25T12:38:18.564Z,99998.95
2019-05-25T12:40:53.943Z,99994.13
2019-05-25T12:43:24.806Z,99987.76
2019-05-25T12:45:57.199Z,99981.39
2019-05-25T12:48:29.404Z,99974.71
2019-05-25T12:51:01.624Z,99963.70
2019-05-25T12:53:33.782Z,99949.01
2019-05-25T12:56:06.097Z,99943.57
2019-05-25T12:58:38.444Z,99936.02
2019-05-25T13:01:10.757Z,99931.28
2019-05-25T13:03:43.130Z,99923.48
2019-05-25T13:06:18.258Z,99921.66
2019-05-25T13:08:49.676Z,99916.28
2019-05-25T13:11:21.962Z,99914.01
2019-05-25T13:13:54.101Z,99913.83
2019-05-25T13:16:26.429Z,99914.64
2019-05-25T13:18:58.531Z,99916.67
2019-05-25T13:21:30.741Z,99922.61
2019-05-25T13:24:03.040Z,99921.92
2019-05-25T13:26:35.227Z,99915.47
2019-05-25T13:29:07.276Z,99918.51
2019-05-25T13:31:39.467Z,99916.43
2019-05-25T13:34:11.498Z,99919.97
2019-05-25T13:36:43.789Z,99912.59
2019-05-25T13:39:15.876Z,99908.61
2019-05-25T13:41:47.930Z,99911.64
2019-05-25T13:44:20.124Z,99914.34
2019-05-25T13:46:52.226Z,99896.50
2019-05-25T13:49:24.568Z,99894.70
2019-05-25T13:51:56.616Z,99898.05
2019-05-25T13:54:29.001Z,99902.61
2019-05-25T13:57:01.075Z,99899.39
2019-05-25T13:59:33.136Z,99892.94
2019-05-25T14:02:05.322Z,99892.88
2019-05-25T14:04:37.624Z,99890.12
2019-05-25T14:07:09.703Z,99888.09
2019-05-25T14:09:41.799Z,99879.13
2019-05-25T14:12:14.110Z,99877.66
2019-05-25T14:14:46.041Z,99880.69
2019-05-25T14:17:18.191Z,99880.69
2019-05-25T14:19:50.477Z,99881.07
2019-05-25T14:22:22.706Z,99884.52
2019-05-25T14:24:55.032Z,99877.98
2019-05-25T14:27:27.250Z,99877.78
2019-05-25T14:29:59.297Z,99879.77
2019-05-25T14:32:31.429Z,99879.74
2019-05-25T14:35:04.380Z,99870.11
2019-05-25T14:37:36.635Z,99866.73
2019-05-25T14:40:11.455Z,99866.45
2019-05-25T14:42:43.368Z,99876.05
2019-05-25T14:45:15.714Z,99873.02
2019-05-25T14:47:48.042Z,99878.48
2019-05-25T14:50:28.367Z,99873.92
2019-05-25T14:53:00.615Z,99878.80
2019-05-25T14:55:32.834Z,99879.22
2019-05-25T14:58:05.263Z,99879.87
2019-05-25T15:00:37.639Z,99879.37
2019-05-25T15:03:09.781Z,99883.04
2019-05-25T15:05:41.755Z,99880.27
2019-05-25T15:08:13.992Z,99887.59
2019-05-25T15:10:46.096Z,99887.84
2019-05-25T15:13:18.386Z,99883.14
2019-05-25T15:15:50.571Z,99886.73
2019-05-25T15:18:22.858Z,99886.92
2019-05-25T15:20:55.248Z,99890.18
2019-05-25T15:23:27.611Z,99893.83
2019-05-25T15:26:00.221Z,99893.98
2019-05-25T15:28:32.484Z,99897.75
2019-05-25T15:31:04.725Z,99903.47
2019-05-25T15:33:37.373Z,99897.50
2019-05-25T15:36:09.727Z,99886.70
2019-05-25T15:38:41.952Z,99900.70
2019-05-25T15:41:14.023Z,99898.47
2019-05-25T15:43:46.882Z,99903.03
2019-05-25T15:46:19.271Z,99904.84
2019-05-25T15:48:51.730Z,99904.96
2019-05-25T15:51:23.918Z,99898.73
2019-05-25T15:53:56.218Z,99908.16
2019-05-25T15:56:29.511Z,99907.28
2019-05-25T15:59:01.749Z,99908.29
2019-05-25T16:01:34.323Z,99898.19
2019-05-25T16:04:06.701Z,99888.38
2019-05-25T16:06:39.104Z,99895.33
2019-05-25T16:09:14.581Z,99899.56
2019-05-25T16:11:46.890Z,99896.11
2019-05-25T16:14:19.199Z,99898.17
2019-05-25T16:16:51.686Z,99895.52
2019-05-25T16:19:24.888Z,99898.88
2019-05-25T16:21:57.195Z,99895.53
2019-05-25T16:24:29.503Z,99893.53
2019-05-25T16:27:02.006Z,99902.44
2019-05-25T16:29:35.549Z,99897.91
2019-05-25T16:32:07.780Z,99891.17
2019-05-25T16:34:40.083Z,99888.84
2019-05-25T16:37:12.438Z,99891.53
2019-05-25T16:39:44.626Z,99888.16
2019-05-25T16:42:16.718Z,99893.87
2019-05-25T16:44:48.859Z,99889.49
2019-05-25T16:47:23.201Z,99893.80
2019-05-25T16:49:55.290Z,99889.78
2019-05-25T16:52:27.614Z,99892.14
2019-05-25T16:54:59.866Z,99892.77
2019-05-25T16:57:31.956Z,99895.42
2019-05-25T17:00:07.996Z,99900.47
2019-05-25T17:02:40.385Z,99895.91
2019-05-25T17:05:12.784Z,99898.91
2019-05-25T17:07:44.941Z,99899.23
2019-05-25T17:10:18.425Z,99890.19
2019-05-25T17:12:50.433Z,99885.99
2019-05-25T17:15:22.740Z,99885.48
2019-05-25T17:17:54.915Z,99886.33
2019-05-25T17:20:27.221Z,99889.98
2019-05-25T17:22:59.601Z,99888.65
2019-05-25T17:25:31.933Z,99888.98
2019-05-25T17:28:04.505Z,99889.68
2019-05-25T17:30:47.145Z,99891.00
2019-05-25T17:33:19.415Z,99886.78
2019-05-25T17:35:51.745Z,99882.06
2019-05-25T17:38:24.006Z,99883.77
2019-05-25T17:40:56.307Z,99882.93
2019-05-25T17:43:28.503Z,99883.57
2019-05-25T17:46:00.542Z,99890.71
2019-05-25T17:48:32.771Z,99891.89
2019-05-25T17:51:05.120Z,99893.66
2019-05-25T17:53:37.225Z,99900.33
2019-05-25T17:56:09.614Z,99905.52
2019-05-25T17:58:41.885Z,99913.91
2019-05-25T18:01:14.296Z,99917.55
2019-05-25T18:04:04.945Z,99915.66
2019-05-25T18:06:20.605Z,99914.16
2019-05-25T18:08:52.910Z,99918.17
2019-05-25T18:11:25.413Z,99921.81
2019-05-25T18:13:59.161Z,99922.61
2019-05-25T18:16:31.642Z,99924.45
2019-05-25T18:19:04.002Z,99927.34
2019-05-25T18:21:36.286Z,99926.84
2019-05-25T18:24:08.706Z,99923.82
2019-05-25T18:26:40.888Z,99926.30
2019-05-25T18:29:13.282Z,99928.59
2019-05-25T18:31:45.553Z,99933.44
2019-05-25T18:34:22.052Z,99929.92
2019-05-25T18:36:51.801Z,99929.88
2019-05-25T18:39:25.969Z,99936.08
2019-05-25T18:41:58.279Z,99932.94
2019-05-25T18:44:30.584Z,99936.34
2019-05-25T18:47:03.987Z,99940.23
2019-05-25T18:49:36.434Z,99936.73
2019-05-25T18:52:09.138Z,99931.09
2019-05-25T18:54:41.838Z,99932.22
2019-05-25T18:57:14.298Z,99927.87
2019-05-25T18:59:46.571Z,99929.10
2019-05-25T19:02:19.123Z,99932.11
2019-05-25T19:04:59.370Z,99926.64
2019-05-25T19:07:25.723Z,99925.84
2019-05-25T19:09:58.078Z,99927.75
2019-05-25T19:12:30.712Z,99924.19
2019-05-25T19:15:03.119Z,99922.80
2019-05-25T19:17:35.576Z,99928.09
2019-05-25T19:20:09.405Z,99920.95
2019-05-25T19:22:41.768Z,99921.67
2019-05-25T19:25:14.450Z,99927.58
2019-05-25T19:27:47.146Z,99923.23
2019-05-25T19:30:20.066Z,99928.76
2019-05-25T19:32:52.376Z,99919.59
2019-05-25T19:35:24.640Z,99912.47
2019-05-25T19:37:56.879Z,99913.19
2019-05-25T19:40:30.649Z,99916.13
2019-05-25T19:43:03.119Z,99912.27
2019-05-25T19:45:35.339Z,99915.16
2019-05-25T19:48:07.866Z,99920.02
2019-05-25T19:50:40.128Z,99916.96
2019-05-25T19:53:12.519Z,99918.80
2019-05-25T19:55:44.922Z,99915.08
2019-05-25T19:58:17.288Z,99909.37
2019-05-25T20:00:49.625Z,99914.16
2019-05-25T20:03:22.037Z,99916.29
2019-05-25T20:05:55.332Z,99915.48
2019-05-25T20:08:27.680Z,99916.45
2019-05-25T20:11:00.183Z,99914.28
2019-05-25T20:13:32.653Z,99913.44
2019-05-25T20:16:05.896Z,99915.78
2019-05-25T20:18:39.684Z,99915.23
2019-05-25T20:21:11.994Z,99914.73
2019-05-25T20:23:44.297Z,99913.90
2019-05-25T20:26:16.624Z,99915.61
2019-05-25T20:28:50.772Z,99913.11
2019-05-25T20:31:23.359Z,99916.13
2019-05-25T20:33:57.066Z,99910.42
2019-05-25T20:36:30.841Z,99904.73
2019-05-25T20:39:03.159Z,99910.55
2019-05-25T20:41:35.472Z,99905.19
2019-05-25T20:44:08.234Z,99910.67
2019-05-25T20:46:40.524Z,99917.24
2019-05-25T20:49:12.643Z,99913.52
2019-05-25T20:51:44.986Z,99914.02
2019-05-25T20:54:17.245Z,99918.33
2019-05-25T20:56:49.421Z,99914.47
2019-05-25T20:59:21.622Z,99917.27
2019-05-25T21:01:54.880Z,99909.73
2019-05-25T21:04:27.195Z,99909.22
2019-05-25T21:06:59.536Z,99911.58
2019-05-25T21:09:31.760Z,99912.23
2019-05-25T21:12:04.043Z,99919.83
2019-05-25T21:14:36.398Z,99912.47
2019-05-25T21:17:08.495Z,99914.64
2019-05-25T21:19:40.720Z,99916.35
2019-05-25T21:22:13.039Z,99920.99
2019-05-25T21:24:45.122Z,99918.45
2019-05-25T21:27:17.373Z,99917.25
2019-05-25T21:29:49.648Z,99915.92
2019-05-25T21:32:22.832Z,99912.23
2019-05-25T21:34:55.213Z,99912.41
2019-05-25T21:37:27.506Z,99906.12
2019-05-25T21:39:59.665Z,99909.45
2019-05-25T21:42:31.917Z,99913.15
2019-05-25T21:45:06.194Z,99908.28
2019-05-25T21:47:38.520Z,99907.38
2019-05-25T21:50:10.989Z,99905.49
2019-05-25T21:52:43.217Z,99903.48
2019-05-25T21:55:15.825Z,99904.99
2019-05-25T21:57:48.123Z,99904.16
2019-05-25T22:00:25.188Z,99907.16
2019-05-25T22:02:59.148Z,99910.59
2019-05-25T22:05:32.656Z,99915.44
2019-05-25T22:08:05.059Z,99911.25
2019-05-25T22:10:37.337Z,99917.05
2019-05-25T22:13:23.777Z,99910.86
2019-05-25T22:15:44.398Z,99908.50
2019-05-25T22:18:16.780Z,99912.15
2019-05-25T22:20:49.129Z,99911.79
2019-05-25T22:23:21.403Z,99908.06
2019-05-25T22:25:53.671Z,99912.58
2019-05-25T22:28:25.947Z,99918.09
2019-05-25T22:30:59.352Z,99913.39
2019-05-25T22:33:31.755Z,99909.27
2019-05-25T22:36:04.616Z,99908.64
2019-05-25T22:38:36.783Z,99916.85
2019-05-25T22:41:08.947Z,99915.57
2019-05-25T22:43:41.286Z,99911.23
2019-05-25T22:46:15.530Z,99915.07
2019-05-25T22:48:47.804Z,99910.40
2019-05-25T22:51:20.181Z,99907.44
2019-05-25T22:53:52.611Z,99906.72
2019-05-25T22:56:24.662Z,99904.29
2019-05-25T22:58:56.885Z,99905.41
2019-05-25T23:01:29.258Z,99907.07
2019-05-25T23:04:02.614Z,99910.53
2019-05-25T23:06:35.017Z,99900.30
2019-05-25T23:09:08.060Z,99904.44
2019-05-25T23:11:40.536Z,99896.63
2019-05-25T23:14:12.759Z,99889.37
2019-05-25T23:16:45.152Z,99893.22
2019-05-25T23:19:17.487Z,99893.72
2019-05-25T23:21:49.721Z,99896.73
2019-05-25T23:24:22.037Z,99894.90
2019-05-25T23:26:54.343Z,99898.31
2019-05-25T23:29:26.727Z,99903.23
2019-05-25T23:31:59.087Z,99899.33
2019-05-25T23:34:31.487Z,99891.48
2019-05-25T23:37:14.252Z,99895.89
2019-05-25T23:39:37.593Z,99897.17
2019-05-25T23:42:11.837Z,99894.00
2019-05-25T23:44:43.969Z,99894.00
2019-05-25T23:47:16.264Z,99890.89
2019-05-25T23:49:48.448Z,99884.98
2019-05-25T23:52:20.852Z,99888.31
2019-05-25T23:54:53.118Z,99889.15
2019-05-25T23:57:25.481Z,99889.96
2019-05-25T23:59:57.709Z,99888.41
